createdAt,value
2017-10-29T00:00:45.275Z,0
2017-10-29T00:01:44.900Z,0
2017-10-29T00:02:44.892Z,0
2017-10-29T00:03:44.542Z,0
2017-10-29T00:04:44.870Z,0
2017-10-29T00:05:45.183Z,0
2017-10-29T00:06:44.833Z,0
2017-10-29T00:07:44.482Z,0
2017-10-29T00:08:44.797Z,0
2017-10-29T00:09:44.447Z,0
2017-10-29T00:10:44.776Z,0
2017-10-29T00:11:44.752Z,0
2017-10-29T00:12:44.746Z,0
2017-10-29T00:13:44.389Z,0
2017-10-29T00:14:45.039Z,0
2017-10-29T00:15:44.361Z,0
2017-10-29T00:16:44.342Z,0
2017-10-29T00:17:44.662Z,0
2017-10-29T00:18:44.644Z,0
2017-10-29T00:19:44.633Z,0
2017-10-29T00:20:44.607Z,0
2017-10-29T00:21:44.935Z,0
2017-10-29T00:22:44.587Z,0
2017-10-29T00:23:44.243Z,0
2017-10-29T00:24:44.891Z,0
2017-10-29T00:25:44.874Z,0
2017-10-29T00:26:44.531Z,0
2017-10-29T00:27:44.185Z,0
2017-10-29T00:28:44.490Z,0
2017-10-29T00:29:44.812Z,0
2017-10-29T00:30:44.128Z,0
2017-10-29T00:31:44.451Z,0
2017-10-29T00:32:44.446Z,0
2017-10-29T00:33:44.078Z,0
2017-10-29T00:34:44.400Z,0
2017-10-29T00:35:44.383Z,0
2017-10-29T00:36:44.382Z,0
2017-10-29T00:37:44.024Z,0
2017-10-29T00:38:44.358Z,0
2017-10-29T00:39:44.328Z,0
2017-10-29T00:40:44.643Z,0
2017-10-29T00:41:44.633Z,0
2017-10-29T00:42:44.342Z,0
2017-10-29T00:43:44.278Z,0
2017-10-29T00:44:44.254Z,0
2017-10-29T00:45:44.791Z,0
2017-10-29T00:46:44.440Z,0
2017-10-29T00:47:43.953Z,0
2017-10-29T00:48:44.399Z,0
2017-10-29T00:49:43.841Z,0
2017-10-29T00:50:44.505Z,0
2017-10-29T00:51:43.806Z,0
2017-10-29T00:52:43.805Z,0
2017-10-29T00:53:44.448Z,0
2017-10-29T00:54:43.768Z,0
2017-10-29T00:55:44.081Z,0
2017-10-29T00:56:43.393Z,0
2017-10-29T00:57:44.056Z,0
2017-10-29T00:58:44.373Z,0
2017-10-29T00:59:44.036Z,0
2017-10-29T01:00:44.342Z,0
2017-10-29T01:01:43.998Z,0
2017-10-29T01:02:43.656Z,0
2017-10-29T01:03:43.974Z,0
2017-10-29T01:04:43.613Z,0
2017-10-29T01:05:43.596Z,0
2017-10-29T01:06:43.582Z,0
2017-10-29T01:07:43.574Z,0
2017-10-29T01:08:44.231Z,0
2017-10-29T01:09:43.574Z,0
2017-10-29T01:10:43.853Z,0
2017-10-29T01:11:43.848Z,0
2017-10-29T01:12:43.862Z,0
2017-10-29T01:13:43.473Z,0
2017-10-29T01:14:44.156Z,0
2017-10-29T01:15:43.813Z,0
2017-10-29T01:16:44.113Z,0
2017-10-29T01:17:43.752Z,0
2017-10-29T01:18:43.729Z,0
2017-10-29T01:19:43.717Z,0
2017-10-29T01:20:43.368Z,0
2017-10-29T01:21:43.354Z,0
2017-10-29T01:22:43.359Z,0
2017-10-29T01:23:43.673Z,0
2017-10-29T01:24:43.306Z,0
2017-10-29T01:25:43.294Z,0
2017-10-29T01:26:43.608Z,0
2017-10-29T01:27:43.263Z,0
2017-10-29T01:28:43.591Z,0
2017-10-29T01:29:43.980Z,0
2017-10-29T01:30:43.227Z,0
2017-10-29T01:31:43.547Z,0
2017-10-29T01:32:43.549Z,0
2017-10-29T01:33:43.173Z,0
2017-10-29T01:34:43.505Z,0
2017-10-29T01:35:43.473Z,0
2017-10-29T01:36:43.460Z,0
2017-10-29T01:37:43.775Z,0
2017-10-29T01:38:43.445Z,0
2017-10-29T01:39:43.411Z,0
2017-10-29T01:40:43.058Z,0
2017-10-29T01:41:43.379Z,0
2017-10-29T01:42:43.379Z,0
2017-10-29T01:43:43.687Z,0
2017-10-29T01:44:43.675Z,0
2017-10-29T01:45:43.317Z,0
2017-10-29T01:46:43.640Z,0
2017-10-29T01:47:42.990Z,0
2017-10-29T01:48:42.940Z,0
2017-10-29T01:49:42.921Z,0
2017-10-29T01:50:42.579Z,0
2017-10-29T01:51:43.234Z,0
2017-10-29T01:52:43.542Z,0
2017-10-29T01:53:43.543Z,0
2017-10-29T01:54:42.526Z,0
2017-10-29T01:55:42.836Z,0
2017-10-29T01:56:43.163Z,0
2017-10-29T01:57:43.148Z,0
2017-10-29T01:58:43.150Z,0
2017-10-29T01:59:42.772Z,0
2017-10-29T02:00:43.106Z,0
2017-10-29T02:01:42.750Z,0
2017-10-29T02:02:43.399Z,0
2017-10-29T02:03:43.041Z,0
2017-10-29T02:04:43.036Z,0
2017-10-29T02:05:43.352Z,0
2017-10-29T02:06:42.995Z,0
2017-10-29T02:07:42.977Z,0
2017-10-29T02:08:42.656Z,0
2017-10-29T02:09:43.299Z,0
2017-10-29T02:10:43.266Z,0
2017-10-29T02:11:42.260Z,0
2017-10-29T02:12:42.930Z,0
2017-10-29T02:13:42.225Z,0
2017-10-29T02:14:42.876Z,0
2017-10-29T02:15:42.534Z,0
2017-10-29T02:16:42.541Z,0
2017-10-29T02:17:42.832Z,0
2017-10-29T02:18:42.488Z,0
2017-10-29T02:19:42.137Z,0
2017-10-29T02:20:42.453Z,0
2017-10-29T02:21:42.764Z,0
2017-10-29T02:22:42.766Z,0
2017-10-29T02:23:42.746Z,0
2017-10-29T02:24:42.733Z,0
2017-10-29T02:25:42.708Z,0
2017-10-29T02:26:43.022Z,0
2017-10-29T02:27:42.690Z,0
2017-10-29T02:28:42.656Z,0
2017-10-29T02:29:42.642Z,0
2017-10-29T02:30:42.632Z,0
2017-10-29T02:31:42.621Z,0
2017-10-29T02:32:42.597Z,0
2017-10-29T02:33:42.256Z,0
2017-10-29T02:34:42.238Z,0
2017-10-29T02:35:42.226Z,0
2017-10-29T02:36:42.540Z,0
2017-10-29T02:37:41.867Z,0
2017-10-29T02:38:42.185Z,0
2017-10-29T02:39:42.835Z,0
2017-10-29T02:40:42.490Z,0
2017-10-29T02:41:42.128Z,0
2017-10-29T02:42:42.830Z,0
2017-10-29T02:43:42.438Z,0
2017-10-29T02:44:42.753Z,0
2017-10-29T02:45:42.064Z,0
2017-10-29T02:46:42.736Z,0
2017-10-29T02:47:42.040Z,0
2017-10-29T02:48:42.020Z,0
2017-10-29T02:49:42.345Z,0
2017-10-29T02:50:42.332Z,0
2017-10-29T02:51:42.674Z,0
2017-10-29T02:52:42.638Z,0
2017-10-29T02:53:42.285Z,0
2017-10-29T02:54:42.270Z,0
2017-10-29T02:55:42.275Z,0
2017-10-29T02:56:41.900Z,0
2017-10-29T02:57:42.563Z,0
2017-10-29T02:58:42.211Z,0
2017-10-29T02:59:42.550Z,0
2017-10-29T03:00:42.183Z,0
2017-10-29T03:01:41.839Z,0
2017-10-29T03:02:41.480Z,0
2017-10-29T03:03:41.799Z,0
2017-10-29T03:04:42.164Z,0
2017-10-29T03:05:42.439Z,0
2017-10-29T03:06:41.788Z,0
2017-10-29T03:07:42.070Z,0
2017-10-29T03:08:41.719Z,0
2017-10-29T03:09:42.053Z,0
2017-10-29T03:10:41.698Z,0
2017-10-29T03:11:42.019Z,0
2017-10-29T03:12:42.335Z,0
2017-10-29T03:13:41.984Z,0
2017-10-29T03:14:42.300Z,0
2017-10-29T03:15:41.955Z,0
2017-10-29T03:16:42.273Z,0
2017-10-29T03:17:41.915Z,0
2017-10-29T03:18:41.904Z,0
2017-10-29T03:19:41.938Z,0
2017-10-29T03:20:41.861Z,0
2017-10-29T03:21:41.521Z,0
2017-10-29T03:22:41.506Z,0
2017-10-29T03:23:41.487Z,0
2017-10-29T03:24:41.489Z,0
2017-10-29T03:25:41.478Z,0
2017-10-29T03:26:41.985Z,0
2017-10-29T03:27:41.651Z,0
2017-10-29T03:28:41.408Z,0
2017-10-29T03:29:41.974Z,0
2017-10-29T03:30:41.451Z,0
2017-10-29T03:31:41.700Z,0
2017-10-29T03:32:42.018Z,0
2017-10-29T03:33:42.002Z,0
2017-10-29T03:34:41.359Z,0
2017-10-29T03:35:41.655Z,0
2017-10-29T03:36:41.303Z,0
2017-10-29T03:37:41.944Z,0
2017-10-29T03:38:41.590Z,0
2017-10-29T03:39:41.585Z,0
2017-10-29T03:40:41.244Z,0
2017-10-29T03:41:41.881Z,0
2017-10-29T03:42:41.524Z,0
2017-10-29T03:43:41.173Z,0
2017-10-29T03:44:41.205Z,0
2017-10-29T03:45:41.470Z,0
2017-10-29T03:46:41.123Z,0
2017-10-29T03:47:41.449Z,0
2017-10-29T03:48:41.424Z,0
2017-10-29T03:49:41.085Z,0
2017-10-29T03:50:41.058Z,0
2017-10-29T03:51:41.401Z,0
2017-10-29T03:52:40.702Z,0
2017-10-29T03:53:41.356Z,0
2017-10-29T03:54:40.670Z,0
2017-10-29T03:55:40.999Z,0
2017-10-29T03:56:40.981Z,0
2017-10-29T03:57:41.294Z,0
2017-10-29T03:58:41.271Z,0
2017-10-29T03:59:40.585Z,0
2017-10-29T04:00:41.286Z,0
2017-10-29T04:01:40.910Z,0
2017-10-29T04:02:41.547Z,0
2017-10-29T04:03:41.198Z,0
2017-10-29T04:04:40.850Z,0
2017-10-29T04:05:40.824Z,0
2017-10-29T04:06:41.144Z,0
2017-10-29T04:07:40.468Z,0
2017-10-29T04:08:41.112Z,0
2017-10-29T04:09:41.104Z,0
2017-10-29T04:10:41.079Z,0
2017-10-29T04:11:41.060Z,0
2017-10-29T04:12:40.714Z,0
2017-10-29T04:13:41.383Z,0
2017-10-29T04:14:40.689Z,0
2017-10-29T04:15:40.679Z,0
2017-10-29T04:16:40.647Z,0
2017-10-29T04:17:40.641Z,0
2017-10-29T04:18:41.293Z,0
2017-10-29T04:19:40.938Z,0
2017-10-29T04:20:40.934Z,0
2017-10-29T04:21:40.574Z,0
2017-10-29T04:22:41.093Z,0
2017-10-29T04:23:40.885Z,0
2017-10-29T04:24:40.861Z,0
2017-10-29T04:25:40.836Z,0
2017-10-29T04:26:40.824Z,0
2017-10-29T04:27:40.482Z,0
2017-10-29T04:28:40.121Z,0
2017-10-29T04:29:41.115Z,0
2017-10-29T04:30:40.423Z,0
2017-10-29T04:31:40.753Z,0
2017-10-29T04:32:40.742Z,0
2017-10-29T04:33:40.709Z,0
2017-10-29T04:34:40.689Z,0
2017-10-29T04:35:40.346Z,0
2017-10-29T04:36:40.325Z,0
2017-10-29T04:37:41.020Z,0
2017-10-29T04:38:40.965Z,0
2017-10-29T04:39:40.279Z,0
2017-10-29T04:40:40.599Z,0
2017-10-29T04:41:40.243Z,0
2017-10-29T04:42:40.226Z,0
2017-10-29T04:43:40.901Z,0
2017-10-29T04:44:40.200Z,0
2017-10-29T04:45:40.056Z,0
2017-10-29T04:46:40.179Z,0
2017-10-29T04:47:39.817Z,0
2017-10-29T04:48:40.830Z,0
2017-10-29T04:49:40.470Z,0
2017-10-29T04:50:40.108Z,0
2017-10-29T04:51:40.748Z,0
2017-10-29T04:52:40.402Z,0
2017-10-29T04:53:40.393Z,0
2017-10-29T04:54:40.389Z,0
2017-10-29T04:55:40.216Z,0
2017-10-29T04:56:40.342Z,0
2017-10-29T04:57:40.360Z,0
2017-10-29T04:58:39.959Z,0
2017-10-29T04:59:39.976Z,0
2017-10-29T05:00:40.267Z,0
2017-10-29T05:01:40.458Z,0
2017-10-29T05:02:40.572Z,0
2017-10-29T05:03:40.225Z,0
2017-10-29T05:04:40.209Z,0
2017-10-29T05:05:40.518Z,0
2017-10-29T05:06:39.840Z,0
2017-10-29T05:07:40.171Z,0
2017-10-29T05:08:40.137Z,0
2017-10-29T05:09:40.129Z,0
2017-10-29T05:10:40.108Z,0
2017-10-29T05:11:40.088Z,0
2017-10-29T05:12:40.647Z,0
2017-10-29T05:13:39.718Z,0
2017-10-29T05:14:39.721Z,0
2017-10-29T05:15:39.691Z,0
2017-10-29T05:16:39.679Z,0
2017-10-29T05:17:40.000Z,0
2017-10-29T05:18:39.648Z,0
2017-10-29T05:19:39.639Z,0
2017-10-29T05:20:39.960Z,0
2017-10-29T05:21:39.283Z,0
2017-10-29T05:22:39.918Z,0
2017-10-29T05:23:39.239Z,0
2017-10-29T05:24:39.557Z,0
2017-10-29T05:25:39.530Z,0
2017-10-29T05:26:39.955Z,0
2017-10-29T05:27:40.167Z,0
2017-10-29T05:28:39.809Z,0
2017-10-29T05:29:40.125Z,0
2017-10-29T05:30:40.003Z,0
2017-10-29T05:31:39.426Z,0
2017-10-29T05:32:40.077Z,0
2017-10-29T05:33:40.073Z,0
2017-10-29T05:34:39.714Z,0
2017-10-29T05:35:39.700Z,0
2017-10-29T05:36:39.683Z,0
2017-10-29T05:37:39.662Z,0
2017-10-29T05:38:39.646Z,0
2017-10-29T05:39:39.630Z,0
2017-10-29T05:40:39.951Z,0
2017-10-29T05:41:40.042Z,0
2017-10-29T05:42:39.581Z,0
2017-10-29T05:43:38.903Z,0
2017-10-29T05:44:39.888Z,0
2017-10-29T05:45:39.867Z,0
2017-10-29T05:46:38.846Z,0
2017-10-29T05:47:39.172Z,0
2017-10-29T05:48:39.488Z,4
2017-10-29T05:49:39.473Z,0
2017-10-29T05:50:39.108Z,0
2017-10-29T05:51:39.430Z,0
2017-10-29T05:52:39.080Z,0
2017-10-29T05:53:38.731Z,4
2017-10-29T05:54:38.715Z,4
2017-10-29T05:55:39.037Z,4
2017-10-29T05:56:39.358Z,4
2017-10-29T05:57:39.689Z,4
2017-10-29T05:58:39.007Z,8
2017-10-29T05:59:39.631Z,8
2017-10-29T06:00:39.652Z,12
2017-10-29T06:01:39.268Z,16
2017-10-29T06:02:39.262Z,12
2017-10-29T06:03:39.228Z,20
2017-10-29T06:04:39.224Z,24
2017-10-29T06:05:38.860Z,24
2017-10-29T06:06:39.625Z,32
2017-10-29T06:07:39.509Z,44
2017-10-29T06:08:39.489Z,44
2017-10-29T06:09:38.797Z,52
2017-10-29T06:10:38.781Z,64
2017-10-29T06:11:38.766Z,76
2017-10-29T06:12:39.090Z,96
2017-10-29T06:13:39.408Z,104
2017-10-29T06:14:39.060Z,104
2017-10-29T06:15:38.700Z,124
2017-10-29T06:16:38.684Z,132
2017-10-29T06:17:38.765Z,148
2017-10-29T06:18:39.316Z,152
2017-10-29T06:19:38.966Z,160
2017-10-29T06:20:39.304Z,180
2017-10-29T06:21:38.942Z,204
2017-10-29T06:22:38.249Z,228
2017-10-29T06:23:38.912Z,244
2017-10-29T06:24:38.553Z,264
2017-10-29T06:25:39.216Z,284
2017-10-29T06:26:38.533Z,304
2017-10-29T06:27:38.838Z,320
2017-10-29T06:28:38.817Z,344
2017-10-29T06:29:38.810Z,360
2017-10-29T06:30:38.790Z,384
2017-10-29T06:31:38.439Z,408
2017-10-29T06:32:38.756Z,440
2017-10-29T06:33:38.735Z,456
2017-10-29T06:34:38.601Z,484
2017-10-29T06:35:38.704Z,508
2017-10-29T06:36:39.019Z,540
2017-10-29T06:37:38.672Z,592
2017-10-29T06:38:38.978Z,596
2017-10-29T06:39:38.627Z,600
2017-10-29T06:40:38.281Z,636
2017-10-29T06:41:38.929Z,652
2017-10-29T06:42:38.245Z,688
2017-10-29T06:43:38.233Z,700
2017-10-29T06:44:38.208Z,740
2017-10-29T06:45:38.549Z,828
2017-10-29T06:46:38.857Z,780
2017-10-29T06:47:38.162Z,812
2017-10-29T06:48:38.152Z,868
2017-10-29T06:49:38.461Z,872
2017-10-29T06:50:38.447Z,884
2017-10-29T06:51:38.756Z,880
2017-10-29T06:52:38.095Z,912
2017-10-29T06:53:38.071Z,920
2017-10-29T06:54:38.377Z,1024
2017-10-29T06:55:38.702Z,1216
2017-10-29T06:56:38.006Z,1112
2017-10-29T06:57:38.328Z,1152
2017-10-29T06:58:38.640Z,1176
2017-10-29T06:59:37.957Z,1228
2017-10-29T07:00:38.275Z,1244
2017-10-29T07:01:38.263Z,1436
2017-10-29T07:02:37.901Z,1400
2017-10-29T07:03:38.227Z,1356
2017-10-29T07:04:38.223Z,1388
2017-10-29T07:05:38.192Z,1460
2017-10-29T07:06:38.169Z,1520
2017-10-29T07:07:38.503Z,1708
2017-10-29T07:08:37.801Z,1968
2017-10-29T07:09:38.133Z,1908
2017-10-29T07:10:37.777Z,1956
2017-10-29T07:11:38.107Z,1916
2017-10-29T07:12:38.071Z,1844
2017-10-29T07:13:38.052Z,1652
2017-10-29T07:14:38.052Z,1664
2017-10-29T07:15:38.384Z,1560
2017-10-29T07:16:38.337Z,1544
2017-10-29T07:17:38.319Z,1556
2017-10-29T07:18:37.973Z,1556
2017-10-29T07:19:37.280Z,1620
2017-10-29T07:20:37.924Z,1712
2017-10-29T07:21:38.252Z,1784
2017-10-29T07:22:37.894Z,1764
2017-10-29T07:23:37.873Z,1784
2017-10-29T07:24:38.193Z,1788
2017-10-29T07:25:37.515Z,1808
2017-10-29T07:26:37.504Z,1848
2017-10-29T07:27:37.477Z,1936
2017-10-29T07:28:37.124Z,2000
2017-10-29T07:29:38.109Z,2116
2017-10-29T07:30:37.965Z,2252
2017-10-29T07:31:37.737Z,2168
2017-10-29T07:32:37.726Z,2164
2017-10-29T07:33:37.812Z,2288
2017-10-29T07:34:37.694Z,2544
2017-10-29T07:35:37.676Z,3264
2017-10-29T07:36:37.320Z,3024
2017-10-29T07:37:37.310Z,3460
2017-10-29T07:38:37.954Z,4308
2017-10-29T07:39:37.604Z,3764
2017-10-29T07:40:37.594Z,3240
2017-10-29T07:41:37.925Z,3632
2017-10-29T07:42:36.888Z,4516
2017-10-29T07:43:37.975Z,4416
2017-10-29T07:44:37.526Z,3960
2017-10-29T07:45:37.512Z,3900
2017-10-29T07:46:37.496Z,3404
2017-10-29T07:47:37.136Z,2996
2017-10-29T07:48:37.129Z,2932
2017-10-29T07:49:36.780Z,2768
2017-10-29T07:50:37.426Z,2608
2017-10-29T07:51:37.402Z,2456
2017-10-29T07:52:37.740Z,2124
2017-10-29T07:53:37.048Z,2168
2017-10-29T07:54:37.362Z,2396
2017-10-29T07:55:37.013Z,2672
2017-10-29T07:56:37.708Z,2928
2017-10-29T07:57:37.648Z,3008
2017-10-29T07:58:37.837Z,2916
2017-10-29T07:59:37.617Z,2932
2017-10-29T08:00:37.604Z,2872
2017-10-29T08:01:36.919Z,2844
2017-10-29T08:02:37.252Z,2992
2017-10-29T08:03:37.208Z,3084
2017-10-29T08:04:37.322Z,3176
2017-10-29T08:05:36.866Z,3152
2017-10-29T08:06:37.180Z,3304
2017-10-29T08:07:37.159Z,3280
2017-10-29T08:08:37.129Z,3208
2017-10-29T08:09:37.115Z,3264
2017-10-29T08:10:37.447Z,3364
2017-10-29T08:11:36.766Z,3504
2017-10-29T08:12:37.072Z,3348
2017-10-29T08:13:37.066Z,2984
2017-10-29T08:14:36.798Z,3152
2017-10-29T08:15:36.689Z,3820
2017-10-29T08:16:36.335Z,5348
2017-10-29T08:17:37.326Z,4956
2017-10-29T08:18:36.628Z,4776
2017-10-29T08:19:37.051Z,4468
2017-10-29T08:20:36.952Z,3592
2017-10-29T08:21:36.918Z,3724
2017-10-29T08:22:37.240Z,4080
2017-10-29T08:23:36.554Z,4216
2017-10-29T08:24:36.632Z,4168
2017-10-29T08:25:36.867Z,3924
2017-10-29T08:26:36.524Z,4168
2017-10-29T08:27:37.166Z,5592
2017-10-29T08:28:36.481Z,4860
2017-10-29T08:29:37.147Z,4240
2017-10-29T08:30:37.346Z,4768
2017-10-29T08:31:36.431Z,4052
2017-10-29T08:32:36.751Z,4244
2017-10-29T08:33:36.404Z,4092
2017-10-29T08:34:36.374Z,3892
2017-10-29T08:35:36.692Z,3768
2017-10-29T08:36:36.683Z,3824
2017-10-29T08:37:36.334Z,3844
2017-10-29T08:38:36.982Z,4112
2017-10-29T08:39:36.631Z,3780
2017-10-29T08:40:36.314Z,3916
2017-10-29T08:41:36.599Z,3976
2017-10-29T08:42:36.249Z,3888
2017-10-29T08:43:36.893Z,4340
2017-10-29T08:44:36.565Z,4876
2017-10-29T08:45:36.547Z,4064
2017-10-29T08:46:36.855Z,3956
2017-10-29T08:47:36.178Z,3944
2017-10-29T08:48:36.481Z,4288
2017-10-29T08:49:36.478Z,4456
2017-10-29T08:50:36.459Z,4132
2017-10-29T08:51:36.467Z,5036
2017-10-29T08:52:36.431Z,4536
2017-10-29T08:53:36.397Z,7296
2017-10-29T08:54:36.393Z,4192
2017-10-29T08:55:35.695Z,5332
2017-10-29T08:56:36.017Z,4736
2017-10-29T08:57:36.346Z,4640
2017-10-29T08:58:36.331Z,4648
2017-10-29T08:59:35.972Z,4784
2017-10-29T09:00:35.962Z,7052
2017-10-29T09:01:35.935Z,5736
2017-10-29T09:02:35.925Z,5876
2017-10-29T09:03:36.241Z,5556
2017-10-29T09:04:36.222Z,5376
2017-10-29T09:05:36.618Z,5172
2017-10-29T09:06:36.214Z,5208
2017-10-29T09:07:35.847Z,5192
2017-10-29T09:08:36.166Z,5180
2017-10-29T09:09:36.161Z,5412
2017-10-29T09:10:36.137Z,5320
2017-10-29T09:11:35.456Z,5372
2017-10-29T09:12:35.799Z,5644
2017-10-29T09:13:36.333Z,8128
2017-10-29T09:14:36.072Z,10804
2017-10-29T09:15:36.066Z,8252
2017-10-29T09:16:36.387Z,11876
2017-10-29T09:17:36.029Z,4396
2017-10-29T09:18:35.683Z,4048
2017-10-29T09:19:35.328Z,4716
2017-10-29T09:20:35.312Z,7384
2017-10-29T09:21:35.965Z,10020
2017-10-29T09:22:35.950Z,8800
2017-10-29T09:23:35.944Z,7788
2017-10-29T09:24:35.584Z,6872
2017-10-29T09:25:35.577Z,6808
2017-10-29T09:26:35.906Z,6476
2017-10-29T09:27:35.551Z,10300
2017-10-29T09:28:35.865Z,11388
2017-10-29T09:29:36.196Z,6660
2017-10-29T09:30:36.363Z,6644
2017-10-29T09:31:35.821Z,4864
2017-10-29T09:32:35.815Z,4360
2017-10-29T09:33:36.125Z,6888
2017-10-29T09:34:35.440Z,5356
2017-10-29T09:35:35.424Z,4688
2017-10-29T09:36:35.419Z,12728
2017-10-29T09:37:35.742Z,11944
2017-10-29T09:38:35.377Z,7288
2017-10-29T09:39:36.043Z,9496
2017-10-29T09:40:36.015Z,6388
2017-10-29T09:41:35.674Z,5368
2017-10-29T09:42:36.007Z,5072
2017-10-29T09:43:35.642Z,6936
2017-10-29T09:44:35.636Z,14108
2017-10-29T09:45:35.275Z,9004
2017-10-29T09:46:35.594Z,7068
2017-10-29T09:47:35.251Z,6088
2017-10-29T09:48:35.578Z,6860
2017-10-29T09:49:35.896Z,8524
2017-10-29T09:50:35.247Z,9452
2017-10-29T09:51:35.572Z,5524
2017-10-29T09:52:35.175Z,6424
2017-10-29T09:53:35.364Z,11236
2017-10-29T09:54:35.482Z,10736
2017-10-29T09:55:35.120Z,10644
2017-10-29T09:56:35.806Z,10492
2017-10-29T09:57:34.785Z,10088
2017-10-29T09:58:35.084Z,9828
2017-10-29T09:59:34.742Z,10144
2017-10-29T10:00:35.733Z,9708
2017-10-29T10:01:35.045Z,9812
2017-10-29T10:02:35.692Z,12484
2017-10-29T10:03:35.347Z,11596
2017-10-29T10:04:35.660Z,6392
2017-10-29T10:05:34.991Z,5504
2017-10-29T10:06:34.967Z,7900
2017-10-29T10:07:34.628Z,9820
2017-10-29T10:08:34.621Z,9968
2017-10-29T10:09:35.272Z,8872
2017-10-29T10:10:34.913Z,9012
2017-10-29T10:11:34.914Z,8444
2017-10-29T10:12:35.220Z,8520
2017-10-29T10:13:34.875Z,9460
2017-10-29T10:14:35.200Z,9268
2017-10-29T10:15:35.171Z,10944
2017-10-29T10:16:35.513Z,12388
2017-10-29T10:17:34.823Z,11312
2017-10-29T10:18:35.467Z,10728
2017-10-29T10:19:35.137Z,10960
2017-10-29T10:20:35.104Z,11236
2017-10-29T10:21:35.109Z,10476
2017-10-29T10:22:34.786Z,8784
2017-10-29T10:23:35.071Z,9528
2017-10-29T10:24:35.053Z,9668
2017-10-29T10:25:35.379Z,9856
2017-10-29T10:26:35.093Z,15076
2017-10-29T10:27:34.688Z,15724
2017-10-29T10:28:34.878Z,15040
2017-10-29T10:29:34.983Z,9748
2017-10-29T10:30:34.974Z,8932
2017-10-29T10:31:35.000Z,8700
2017-10-29T10:32:34.603Z,15040
2017-10-29T10:33:35.300Z,15904
2017-10-29T10:34:35.357Z,15872
2017-10-29T10:35:34.578Z,18208
2017-10-29T10:36:34.229Z,26720
2017-10-29T10:37:34.206Z,19520
2017-10-29T10:38:35.435Z,20864
2017-10-29T10:39:34.543Z,13936
2017-10-29T10:40:34.508Z,11796
2017-10-29T10:41:34.831Z,9624
2017-10-29T10:42:34.836Z,10328
2017-10-29T10:43:34.801Z,20320
2017-10-29T10:44:35.015Z,17216
2017-10-29T10:45:35.125Z,11964
2017-10-29T10:46:35.101Z,10932
2017-10-29T10:47:34.086Z,9056
2017-10-29T10:48:34.427Z,7004
2017-10-29T10:49:34.733Z,5480
2017-10-29T10:50:34.719Z,6656
2017-10-29T10:51:34.712Z,23648
2017-10-29T10:52:34.350Z,9808
2017-10-29T10:53:34.679Z,6952
2017-10-29T10:54:34.672Z,9932
2017-10-29T10:55:34.648Z,9144
2017-10-29T10:56:34.674Z,17568
2017-10-29T10:57:34.642Z,8644
2017-10-29T10:58:34.277Z,9912
2017-10-29T10:59:34.601Z,11280
2017-10-29T11:00:34.286Z,10216
2017-10-29T11:01:34.238Z,10276
2017-10-29T11:02:34.882Z,9484
2017-10-29T11:03:34.564Z,9256
2017-10-29T11:04:34.551Z,8808
2017-10-29T11:05:34.196Z,9536
2017-10-29T11:06:34.509Z,11068
2017-10-29T11:07:34.491Z,10512
2017-10-29T11:08:34.488Z,11472
2017-10-29T11:09:34.817Z,7544
2017-10-29T11:10:34.796Z,7472
2017-10-29T11:11:34.118Z,10844
2017-10-29T11:12:34.246Z,18016
2017-10-29T11:13:33.751Z,11600
2017-10-29T11:14:34.405Z,18976
2017-10-29T11:15:34.728Z,17344
2017-10-29T11:16:34.047Z,11784
2017-10-29T11:17:34.372Z,8948
2017-10-29T11:18:34.019Z,7016
2017-10-29T11:19:34.009Z,5076
2017-10-29T11:20:34.664Z,4524
2017-10-29T11:21:34.646Z,4116
2017-10-29T11:22:34.308Z,3856
2017-10-29T11:23:34.310Z,3280
2017-10-29T11:24:33.949Z,3608
2017-10-29T11:25:34.260Z,4180
2017-10-29T11:26:33.926Z,4812
2017-10-29T11:27:33.922Z,4392
2017-10-29T11:28:33.557Z,4704
2017-10-29T11:29:34.214Z,6460
2017-10-29T11:30:34.408Z,8364
2017-10-29T11:31:34.196Z,11448
2017-10-29T11:32:34.514Z,14516
2017-10-29T11:33:33.822Z,16768
2017-10-29T11:34:34.139Z,18272
2017-10-29T11:35:34.129Z,13544
2017-10-29T11:36:34.109Z,12604
2017-10-29T11:37:33.809Z,11524
2017-10-29T11:38:34.080Z,12048
2017-10-29T11:39:33.453Z,20096
2017-10-29T11:40:34.110Z,19744
2017-10-29T11:41:33.697Z,24416
2017-10-29T11:42:33.362Z,24800
2017-10-29T11:43:33.671Z,28320
2017-10-29T11:44:33.665Z,37664
2017-10-29T11:45:34.317Z,17216
2017-10-29T11:46:33.647Z,26816
2017-10-29T11:47:33.961Z,35072
2017-10-29T11:48:34.277Z,36192
2017-10-29T11:49:33.597Z,37344
2017-10-29T11:50:33.585Z,39136
2017-10-29T11:51:33.240Z,41344
2017-10-29T11:52:33.724Z,42592
2017-10-29T11:53:33.924Z,44448
2017-10-29T11:54:33.882Z,45696
2017-10-29T11:55:33.538Z,46688
2017-10-29T11:56:33.518Z,46272
2017-10-29T11:57:33.503Z,45184
2017-10-29T11:58:33.845Z,43168
2017-10-29T11:59:33.489Z,37600
2017-10-29T12:00:33.814Z,38496
2017-10-29T12:01:33.816Z,39008
2017-10-29T12:02:33.464Z,38080
2017-10-29T12:03:34.136Z,38112
2017-10-29T12:04:33.117Z,25216
2017-10-29T12:05:34.122Z,37920
2017-10-29T12:06:33.775Z,39072
2017-10-29T12:07:33.769Z,40960
2017-10-29T12:08:33.758Z,42592
2017-10-29T12:09:33.759Z,42656
2017-10-29T12:10:34.076Z,37280
2017-10-29T12:11:33.401Z,36544
2017-10-29T12:12:33.745Z,36160
2017-10-29T12:13:33.722Z,36000
2017-10-29T12:14:33.712Z,34464
2017-10-29T12:15:34.044Z,33632
2017-10-29T12:16:34.046Z,33440
2017-10-29T12:17:33.372Z,33312
2017-10-29T12:18:33.693Z,34016
2017-10-29T12:19:33.024Z,33824
2017-10-29T12:20:33.347Z,26048
2017-10-29T12:21:33.702Z,34720
2017-10-29T12:22:33.341Z,34656
2017-10-29T12:23:33.358Z,34720
2017-10-29T12:24:33.671Z,34912
2017-10-29T12:25:33.321Z,36160
2017-10-29T12:26:33.308Z,38976
2017-10-29T12:27:33.659Z,43488
2017-10-29T12:28:33.971Z,9264
2017-10-29T12:29:34.110Z,42976
2017-10-29T12:30:34.015Z,29600
2017-10-29T12:31:33.988Z,34912
2017-10-29T12:32:33.284Z,33760
2017-10-29T12:33:33.296Z,34848
2017-10-29T12:34:33.615Z,37184
2017-10-29T12:35:33.936Z,42016
2017-10-29T12:36:33.593Z,41408
2017-10-29T12:37:33.604Z,38720
2017-10-29T12:38:33.251Z,37376
2017-10-29T12:39:33.604Z,38592
2017-10-29T12:40:33.586Z,42272
2017-10-29T12:41:33.582Z,41472
2017-10-29T12:42:32.904Z,41792
2017-10-29T12:43:33.572Z,42624
2017-10-29T12:44:33.549Z,41632
2017-10-29T12:45:33.554Z,16416
2017-10-29T12:46:33.546Z,12668
2017-10-29T12:47:33.244Z,34304
2017-10-29T12:48:33.540Z,35072
2017-10-29T12:49:33.535Z,40320
2017-10-29T12:50:33.527Z,38464
2017-10-29T12:51:32.856Z,37408
2017-10-29T12:52:33.857Z,15840
2017-10-29T12:53:33.186Z,41248
2017-10-29T12:54:33.524Z,19296
2017-10-29T12:55:33.862Z,37216
2017-10-29T12:56:33.169Z,35808
2017-10-29T12:57:32.828Z,33600
2017-10-29T12:58:33.157Z,32320
2017-10-29T12:59:33.502Z,31520
2017-10-29T13:00:33.824Z,31936
2017-10-29T13:01:33.489Z,11652
2017-10-29T13:02:32.809Z,35008
2017-10-29T13:03:33.482Z,30752
2017-10-29T13:04:33.812Z,29696
2017-10-29T13:05:33.461Z,30048
2017-10-29T13:06:33.800Z,19456
2017-10-29T13:07:33.473Z,33152
2017-10-29T13:08:33.464Z,37152
2017-10-29T13:09:32.782Z,33184
2017-10-29T13:10:33.112Z,38720
2017-10-29T13:11:33.771Z,38560
2017-10-29T13:12:33.106Z,14072
2017-10-29T13:13:33.767Z,6724
2017-10-29T13:14:32.812Z,7120
2017-10-29T13:15:33.091Z,27904
2017-10-29T13:16:33.753Z,9956
2017-10-29T13:17:32.743Z,34624
2017-10-29T13:18:33.410Z,35648
2017-10-29T13:19:33.068Z,12652
2017-10-29T13:20:33.395Z,8552
2017-10-29T13:21:33.402Z,9732
2017-10-29T13:22:33.711Z,7652
2017-10-29T13:23:33.372Z,16992
2017-10-29T13:24:33.045Z,18240
2017-10-29T13:25:33.701Z,9192
2017-10-29T13:26:33.694Z,9132
2017-10-29T13:27:33.695Z,36224
2017-10-29T13:28:33.363Z,32640
2017-10-29T13:29:33.680Z,30176
2017-10-29T13:30:32.999Z,28992
2017-10-29T13:31:32.994Z,28320
2017-10-29T13:32:32.651Z,28864
2017-10-29T13:33:33.321Z,28928
2017-10-29T13:34:33.297Z,28192
2017-10-29T13:35:33.632Z,27008
2017-10-29T13:36:33.287Z,25568
2017-10-29T13:37:33.285Z,23296
2017-10-29T13:38:33.606Z,23488
2017-10-29T13:39:33.278Z,23808
2017-10-29T13:40:32.588Z,24224
2017-10-29T13:41:33.251Z,24832
2017-10-29T13:42:33.254Z,24768
2017-10-29T13:43:33.569Z,24096
2017-10-29T13:44:32.899Z,23200
2017-10-29T13:45:33.218Z,18400
2017-10-29T13:46:33.211Z,15552
2017-10-29T13:47:33.208Z,16320
2017-10-29T13:48:33.549Z,16544
2017-10-29T13:49:32.529Z,17056
2017-10-29T13:50:33.528Z,17632